Time;durP1;ratioP1;P1;durP2;ratioP2;P2;SDS_P1;SDS_P2;PMS_P1;PMS_P2;Temp;Humidity;BMP_temperature;BMP_pressure;BME280_temperature;BME280_humidity;BME280_pressure;Samples;Min_cycle;Max_cycle;Signal;HPM_P1;HPM_P2
2022/05/11 00:00:36;;;;;;;1.63;0.70;;;17.40;69.70;;;;;;2066903;28;20042;-90
2022/05/11 00:01:56;;;;;;;2.10;0.80;;;17.40;69.80;;;;;;2069924;28;20034;-90
2022/05/11 00:03:16;;;;;;;1.45;0.73;;;17.40;69.80;;;;;;2074952;28;20042;-90
2022/05/11 00:04:38;;;;;;;2.85;0.90;;;17.40;69.80;;;;;;2065971;28;20042;-90
2022/05/11 00:08:35;;;;;;;2.67;0.80;;;17.40;70.00;;;;;;2071016;28;20508;-90
2022/05/11 00:09:54;;;;;;;1.25;0.60;;;17.40;69.80;;;;;;2066766;28;20105;-90
2022/05/11 00:11:14;;;;;;;2.33;0.80;;;17.40;69.80;;;;;;2060710;28;20038;-91
2022/05/11 00:12:33;;;;;;;0.95;0.65;;;17.40;69.90;;;;;;2076257;28;20034;-91
2022/05/11 00:13:54;;;;;;;1.88;0.70;;;17.40;70.00;;;;;;2077640;28;20067;-90
2022/05/11 00:15:16;;;;;;;2.20;0.70;;;17.40;70.10;;;;;;2082534;28;20042;-91
2022/05/11 00:16:36;;;;;;;2.10;0.73;;;17.40;70.10;;;;;;2083178;28;20049;-90
2022/05/11 00:17:55;;;;;;;1.83;0.70;;;17.40;70.20;;;;;;2070435;28;20026;-90
2022/05/11 00:19:16;;;;;;;1.38;0.80;;;17.40;70.20;;;;;;2057993;28;20513;-89
2022/05/11 00:20:37;;;;;;;1.33;0.75;;;17.40;70.30;;;;;;2063588;28;20038;-90
2022/05/11 00:21:56;;;;;;;0.93;0.52;;;17.40;70.30;;;;;;2064712;28;20047;-91
2022/05/11 00:23:15;;;;;;;2.47;0.80;;;17.40;70.40;;;;;;2067943;28;20038;-90
2022/05/11 00:24:35;;;;;;;1.25;0.52;;;17.40;70.40;;;;;;2064096;28;20055;-91
2022/05/11 00:25:55;;;;;;;1.67;0.70;;;17.30;70.50;;;;;;2071671;28;20030;-90
2022/05/11 00:27:15;;;;;;;2.05;0.82;;;17.30;70.50;;;;;;2074713;28;20237;-91
2022/05/11 00:28:34;;;;;;;2.35;0.80;;;17.30;70.60;;;;;;2074833;28;20034;-91
2022/05/11 00:29:53;;;;;;;1.00;0.70;;;17.30;70.70;;;;;;2065915;28;20038;-91
2022/05/11 00:31:13;;;;;;;2.95;0.80;;;17.30;70.70;;;;;;2064040;28;20050;-91
2022/05/11 00:32:32;;;;;;;1.60;0.80;;;17.30;70.80;;;;;;2072155;28;20073;-91
2022/05/11 00:33:52;;;;;;;0.77;0.63;;;17.30;70.80;;;;;;2073451;28;20081;-91
2022/05/11 00:35:11;;;;;;;2.22;0.80;;;17.30;70.90;;;;;;2074461;28;20042;-90
2022/05/11 00:36:31;;;;;;;1.52;0.80;;;17.30;70.90;;;;;;2075103;28;20030;-91
2022/05/11 00:37:50;;;;;;;1.15;0.70;;;17.30;71.00;;;;;;2078168;28;20046;-90
2022/05/11 00:39:09;;;;;;;2.80;0.80;;;17.30;71.00;;;;;;2074515;28;20124;-91
2022/05/11 00:40:28;;;;;;;1.10;0.70;;;17.30;71.00;;;;;;2064707;28;20081;-90
2022/05/11 00:41:47;;;;;;;1.90;0.73;;;17.30;71.00;;;;;;2069886;28;20120;-91
2022/05/11 00:43:07;;;;;;;1.67;0.70;;;17.30;71.10;;;;;;2057131;28;20042;-91
2022/05/11 00:44:26;;;;;;;2.03;1.00;;;17.30;71.10;;;;;;2063304;28;20137;-90
2022/05/11 00:45:49;;;;;;;1.27;0.70;;;17.30;71.10;;;;;;2057966;28;20122;-90
2022/05/11 00:47:21;;;;;;;1.02;0.63;;;17.30;71.10;;;;;;2063603;28;20054;-92
2022/05/11 00:50:34;;;;;;;2.20;0.80;;;17.30;71.10;;;;;;2070322;28;20073;-91
2022/05/11 00:52:00;;;;;;;2.35;0.60;;;17.30;71.10;;;;;;2073626;28;20124;-91
2022/05/11 00:53:20;;;;;;;0.95;0.70;;;17.30;71.20;;;;;;2074010;28;20404;-92
2022/05/11 00:54:45;;;;;;;2.20;0.70;;;17.20;71.20;;;;;;2070949;28;20073;-91
2022/05/11 00:56:05;;;;;;;1.70;0.82;;;17.20;71.30;;;;;;2074395;28;20026;-91
2022/05/11 00:57:31;;;;;;;1.63;0.70;;;17.20;71.30;;;;;;2080778;28;20400;-91
2022/05/11 00:58:56;;;;;;;1.48;0.80;;;17.20;71.50;;;;;;2067372;28;20105;-91
2022/05/11 01:00:17;;;;;;;2.10;1.02;;;17.20;71.60;;;;;;2074799;28;20520;-91
2022/05/11 01:01:38;;;;;;;1.73;0.77;;;17.20;71.60;;;;;;2074202;28;20428;-91
2022/05/11 01:03:03;;;;;;;;;;;17.20;71.70;;;;;;2072977;28;20046;-90
2022/05/11 01:04:23;;;;;;;1.30;0.80;;;17.20;71.60;;;;;;2075793;28;19909;-91
2022/05/11 01:05:43;;;;;;;1.00;0.70;;;17.20;71.60;;;;;;2065369;28;20042;-91
2022/05/11 01:07:04;;;;;;;1.52;0.90;;;17.20;71.70;;;;;;2071631;28;20088;-91
2022/05/11 01:08:24;;;;;;;2.30;1.00;;;17.10;71.70;;;;;;2074963;28;20050;-91
2022/05/11 01:09:43;;;;;;;1.80;0.88;;;17.10;71.80;;;;;;2074134;28;20046;-91
2022/05/11 01:11:04;;;;;;;1.30;0.80;;;17.10;71.80;;;;;;2065737;28;20046;-91
2022/05/11 01:12:27;;;;;;;;;;;17.10;71.90;;;;;;2063086;28;20050;-91
2022/05/11 01:13:46;;;;;;;1.38;0.90;;;17.10;71.80;;;;;;2064156;28;19917;-91
2022/05/11 01:15:08;;;;;;;1.65;0.80;;;17.10;71.70;;;;;;2065510;28;20073;-91
2022/05/11 01:16:28;;;;;;;1.80;0.88;;;17.10;71.70;;;;;;2063198;28;20479;-91
2022/05/11 01:17:48;;;;;;;;;;;17.10;71.80;;;;;;2066603;28;20046;-91
2022/05/11 01:19:23;;;;;;;1.77;0.70;;;17.10;71.70;;;;;;2057745;28;19911;-91
2022/05/11 01:20:44;;;;;;;1.92;0.80;;;17.10;71.70;;;;;;2073270;28;20053;-91
2022/05/11 01:22:03;;;;;;;;;;;17.10;71.70;;;;;;2058237;28;20035;-91
2022/05/11 01:23:55;;;;;;;0.95;0.70;;;17.10;71.70;;;;;;2068309;28;19909;-92
2022/05/11 01:25:14;;;;;;;;;;;17.10;71.60;;;;;;2074276;28;20057;-91
2022/05/11 01:26:34;;;;;;;0.93;0.65;;;17.10;71.50;;;;;;2072749;28;20438;-91
2022/05/11 01:28:11;;;;;;;1.35;0.80;;;17.00;71.50;;;;;;2074397;28;20041;-91
2022/05/11 01:29:30;;;;;;;1.00;0.80;;;17.10;71.60;;;;;;2064103;28;20567;-91
2022/05/11 01:30:52;;;;;;;2.38;1.10;;;17.00;71.60;;;;;;2057242;28;20047;-91
2022/05/11 01:32:12;;;;;;;1.45;0.82;;;17.00;71.60;;;;;;2063269;28;20481;-91
2022/05/11 01:33:33;;;;;;;1.60;1.00;;;17.10;71.70;;;;;;2057500;28;20051;-91
2022/05/11 01:35:25;;;;;;;1.60;1.02;;;17.00;71.70;;;;;;2057521;28;20433;-91
2022/05/11 01:36:47;;;;;;;2.25;1.00;;;17.00;71.60;;;;;;2071487;28;20045;-91
2022/05/11 01:38:19;;;;;;;2.03;1.02;;;17.10;71.70;;;;;;2073570;28;20431;-91
2022/05/11 01:39:38;;;;;;;1.48;1.00;;;17.10;71.70;;;;;;2081028;28;20049;-91
2022/05/11 01:40:58;;;;;;;2.05;0.98;;;17.00;71.70;;;;;;2073462;28;20045;-91
2022/05/11 01:42:19;;;;;;;1.98;1.05;;;17.00;71.70;;;;;;2062520;28;20042;-91
2022/05/11 01:43:40;;;;;;;1.90;1.00;;;17.00;71.70;;;;;;2064719;28;20046;-91
2022/05/11 01:44:59;;;;;;;;;;;17.10;71.80;;;;;;2074042;28;20042;-91
2022/05/11 01:46:19;;;;;;;2.47;1.00;;;17.00;71.60;;;;;;2070914;28;19917;-91
2022/05/11 01:47:39;;;;;;;2.17;0.90;;;17.00;71.70;;;;;;2070817;28;20075;-91
2022/05/11 01:48:58;;;;;;;1.60;0.90;;;17.00;71.60;;;;;;2073955;28;20045;-91
2022/05/11 01:50:17;;;;;;;2.20;1.10;;;17.00;71.60;;;;;;2061566;28;20030;-91
2022/05/11 01:51:37;;;;;;;2.92;1.00;;;17.00;71.50;;;;;;2071129;28;20038;-91
2022/05/11 01:52:56;;;;;;;2.00;1.00;;;17.00;71.50;;;;;;2060039;28;20035;-91
2022/05/11 01:54:16;;;;;;;3.38;1.20;;;17.00;71.50;;;;;;2066692;28;20070;-90
2022/05/11 01:55:36;;;;;;;2.55;1.33;;;17.00;71.50;;;;;;2077539;28;20050;-91
2022/05/11 01:56:55;;;;;;;2.10;1.00;;;17.00;71.50;;;;;;2081100;28;20434;-91
2022/05/11 01:58:15;;;;;;;2.03;1.00;;;17.00;71.40;;;;;;2073840;28;20046;-92
2022/05/11 01:59:34;;;;;;;2.13;1.15;;;17.00;71.40;;;;;;2078532;28;20034;-91
2022/05/11 02:00:53;;;;;;;3.28;1.38;;;17.00;71.40;;;;;;2070257;28;20049;-91
2022/05/11 02:02:13;;;;;;;2.53;1.15;;;17.00;71.30;;;;;;2069131;28;20034;-90
2022/05/11 02:03:32;;;;;;;2.83;1.30;;;17.00;71.30;;;;;;2078427;28;20041;-91
2022/05/11 02:08:09;;;;;;;3.10;1.40;;;17.00;71.20;;;;;;2073625;28;20050;-91
2022/05/11 02:09:28;;;;;;;2.38;1.20;;;16.90;71.00;;;;;;2073488;28;20503;-92
2022/05/11 02:10:48;;;;;;;2.80;1.55;;;16.90;71.00;;;;;;2081444;28;20060;-91
2022/05/11 02:12:09;;;;;;;2.58;1.25;;;16.90;71.00;;;;;;2073385;28;20034;-91
2022/05/11 02:13:29;;;;;;;2.22;1.23;;;16.90;71.00;;;;;;2072079;28;20046;-91
2022/05/11 02:14:49;;;;;;;2.47;1.20;;;16.90;71.00;;;;;;2077235;28;20037;-91
2022/05/11 02:16:08;;;;;;;2.13;1.10;;;16.90;71.00;;;;;;2079730;28;20079;-91
2022/05/11 02:17:27;;;;;;;3.10;1.40;;;16.90;71.00;;;;;;2076618;28;20488;-92
2022/05/11 02:18:46;;;;;;;2.63;1.40;;;16.90;71.00;;;;;;2073316;28;20101;-91
2022/05/11 02:20:06;;;;;;;3.90;1.50;;;16.90;71.00;;;;;;2078674;28;20077;-92
2022/05/11 02:21:25;;;;;;;2.42;1.30;;;16.90;71.00;;;;;;2057287;28;20039;-91
2022/05/11 02:22:45;;;;;;;4.13;1.45;;;16.90;71.00;;;;;;2072061;28;20037;-91
2022/05/11 02:24:05;;;;;;;2.13;1.23;;;16.90;71.00;;;;;;2065565;28;20038;-91
2022/05/11 02:25:25;;;;;;;2.65;1.40;;;16.90;71.00;;;;;;2061342;28;20073;-91
2022/05/11 02:26:44;;;;;;;2.38;1.40;;;16.90;71.00;;;;;;2070640;28;20041;-91
2022/05/11 02:28:04;;;;;;;2.55;1.40;;;16.90;71.00;;;;;;2068400;28;20042;-91
2022/05/11 02:29:23;;;;;;;2.20;1.20;;;16.90;71.00;;;;;;2078553;28;20037;-91
2022/05/11 02:30:44;;;;;;;2.30;1.20;;;16.90;71.00;;;;;;2073304;28;20045;-91
2022/05/11 02:32:04;;;;;;;2.78;1.30;;;16.90;71.00;;;;;;2079048;28;20486;-91
2022/05/11 02:33:24;;;;;;;1.90;1.08;;;16.90;71.00;;;;;;2081889;28;20025;-91
2022/05/11 02:36:23;;;;;;;2.30;1.13;;;16.90;70.90;;;;;;2080852;28;20033;-91
2022/05/11 02:37:50;;;;;;;2.15;1.23;;;16.90;70.90;;;;;;2065201;28;20086;-91
2022/05/11 02:39:09;;;;;;;2.28;1.20;;;16.90;70.90;;;;;;2070562;28;20042;-91
2022/05/11 02:40:35;;;;;;;1.40;0.93;;;16.90;70.90;;;;;;2063452;28;20576;-91
2022/05/11 02:41:54;;;;;;;3.45;1.50;;;16.90;70.90;;;;;;2064359;28;20046;-91
2022/05/11 02:43:14;;;;;;;2.38;1.30;;;16.90;70.90;;;;;;2065179;28;20046;-91
2022/05/11 02:44:33;;;;;;;1.70;1.10;;;16.90;71.00;;;;;;2054195;28;20051;-91
2022/05/11 02:45:52;;;;;;;2.58;1.20;;;16.90;71.00;;;;;;2060416;28;20125;-89
2022/05/11 02:47:12;;;;;;;1.73;1.15;;;16.90;70.90;;;;;;2070331;28;20046;-90
2022/05/11 02:48:33;;;;;;;2.58;1.20;;;16.90;70.90;;;;;;2073998;28;20042;-91
2022/05/11 02:49:52;;;;;;;2.17;1.20;;;16.90;71.00;;;;;;2057109;28;20047;-90
2022/05/11 02:51:12;;;;;;;2.08;1.20;;;16.90;71.60;;;;;;2057222;28;20038;-91
2022/05/11 02:52:32;;;;;;;2.70;1.10;;;16.90;71.00;;;;;;2069707;28;20492;-91
2022/05/11 02:53:51;;;;;;;1.83;1.10;;;16.90;71.00;;;;;;2078517;28;20038;-92
2022/05/11 02:55:11;;;;;;;2.40;1.25;;;16.90;71.70;;;;;;2078194;28;20054;-91
2022/05/11 02:56:30;;;;;;;3.05;1.73;;;16.80;71.10;;;;;;2074799;28;20030;-90
2022/05/11 02:57:49;;;;;;;2.63;1.20;;;16.90;71.20;;;;;;2065889;28;20030;-91
2022/05/11 02:59:09;;;;;;;1.88;1.20;;;16.90;71.20;;;;;;2065279;28;20074;-91
2022/05/11 03:00:28;;;;;;;3.67;1.30;;;16.80;71.20;;;;;;2064649;28;20054;-91
2022/05/11 03:01:51;;;;;;;2.45;1.30;;;16.80;71.20;;;;;;2064399;28;20070;-91
2022/05/11 03:03:11;;;;;;;1.70;1.17;;;16.80;71.30;;;;;;2067415;28;20050;-91
2022/05/11 03:04:31;;;;;;;3.22;1.42;;;16.80;71.30;;;;;;2064725;28;20042;-91
2022/05/11 03:05:52;;;;;;;2.20;1.17;;;16.80;71.30;;;;;;2079291;28;20025;-91
2022/05/11 03:07:12;;;;;;;3.42;1.27;;;16.70;71.30;;;;;;2065271;28;20050;-91
2022/05/11 03:08:31;;;;;;;2.58;1.20;;;16.70;71.40;;;;;;2066194;28;20042;-90
2022/05/11 03:09:53;;;;;;;2.88;1.30;;;16.80;71.50;;;;;;2072938;28;20050;-91
2022/05/11 03:11:12;;;;;;;1.80;1.10;;;16.70;71.50;;;;;;2071272;28;20038;-91
2022/05/11 03:12:32;;;;;;;2.13;1.40;;;16.70;71.50;;;;;;2055476;28;20046;-91
2022/05/11 03:13:51;;;;;;;3.17;1.50;;;16.70;71.50;;;;;;2056044;28;20125;-92
2022/05/11 03:15:11;;;;;;;2.25;1.30;;;16.70;71.50;;;;;;2074909;28;20046;-91
2022/05/11 03:16:30;;;;;;;3.33;1.50;;;16.70;71.60;;;;;;2075176;28;20365;-91
2022/05/11 03:17:49;;;;;;;2.35;1.45;;;16.70;71.70;;;;;;2065438;28;20043;-91
2022/05/11 03:19:09;;;;;;;2.53;1.40;;;16.70;71.70;;;;;;2062732;28;20512;-90
2022/05/11 03:20:28;;;;;;;2.83;1.40;;;16.70;71.70;;;;;;2072100;28;20054;-91
2022/05/11 03:21:48;;;;;;;1.95;1.27;;;16.60;71.70;;;;;;2058092;28;20031;-91
2022/05/11 03:23:07;;;;;;;2.83;1.63;;;16.60;71.80;;;;;;2068851;28;20054;-91
2022/05/11 03:24:27;;;;;;;2.88;1.67;;;16.60;71.80;;;;;;2067726;28;20069;-91
2022/05/11 03:25:46;;;;;;;2.42;1.27;;;16.60;71.80;;;;;;2065074;28;20050;-91
2022/05/11 03:27:06;;;;;;;2.10;1.27;;;16.60;71.90;;;;;;2071074;28;20045;-90
2022/05/11 03:28:25;;;;;;;2.15;1.30;;;16.60;71.90;;;;;;2069534;28;20037;-91
2022/05/11 03:29:45;;;;;;;1.80;1.23;;;16.60;71.90;;;;;;2066037;28;20050;-90
2022/05/11 03:31:04;;;;;;;3.05;1.30;;;16.60;72.00;;;;;;2063208;28;20026;-91
2022/05/11 03:35:42;;;;;;;2.35;1.33;;;16.60;72.30;;;;;;2074605;28;20081;-91
2022/05/11 03:37:03;;;;;;;;;;;16.60;72.30;;;;;;2075277;28;20057;-91
2022/05/11 03:38:22;;;;;;;2.97;1.40;;;16.50;72.30;;;;;;2065898;28;20280;-91
2022/05/11 03:39:42;;;;;;;1.70;1.23;;;16.50;72.30;;;;;;2053365;28;20038;-91
2022/05/11 03:41:01;;;;;;;2.58;1.30;;;16.50;72.40;;;;;;2060166;28;20117;-91
2022/05/11 03:42:22;;;;;;;2.90;1.48;;;16.50;72.50;;;;;;2060220;28;20109;-91
2022/05/11 03:43:42;;;;;;;3.45;1.25;;;16.50;72.50;;;;;;2064498;28;20046;-91
2022/05/11 03:45:22;;;;;;;2.95;1.50;;;16.50;72.60;;;;;;2065335;28;20046;-91
2022/05/11 03:46:42;;;;;;;3.30;1.30;;;16.50;72.70;;;;;;2066351;28;20038;-91
2022/05/11 03:48:02;;;;;;;2.03;1.30;;;16.50;72.70;;;;;;2068931;28;20098;-91
2022/05/11 03:49:22;;;;;;;2.17;1.40;;;16.50;72.80;;;;;;2075062;28;20065;-91
2022/05/11 03:50:41;;;;;;;2.00;1.60;;;16.50;72.80;;;;;;2075015;28;20046;-91
2022/05/11 03:52:01;;;;;;;3.03;1.50;;;16.50;72.90;;;;;;2065706;28;20039;-90
2022/05/11 03:53:20;;;;;;;3.25;1.48;;;16.50;72.90;;;;;;2062100;28;20034;-91
2022/05/11 03:54:39;;;;;;;2.30;1.40;;;16.50;72.90;;;;;;2063460;28;20038;-91
2022/05/11 03:55:58;;;;;;;3.20;1.60;;;16.50;72.90;;;;;;2074230;28;20702;-91
2022/05/11 03:57:18;;;;;;;3.28;1.50;;;16.50;72.90;;;;;;2065740;28;20050;-91
2022/05/11 03:58:37;;;;;;;3.20;1.90;;;16.50;72.90;;;;;;2060008;28;20465;-91
2022/05/11 03:59:56;;;;;;;3.13;1.63;;;16.50;72.90;;;;;;2071044;28;20462;-91
2022/05/11 04:01:16;;;;;;;2.47;1.50;;;16.50;72.90;;;;;;2066449;28;20485;-90
2022/05/11 04:02:35;;;;;;;3.35;1.80;;;16.50;72.90;;;;;;2065973;28;20031;-91
2022/05/11 04:03:55;;;;;;;3.08;1.60;;;16.50;73.00;;;;;;2071766;28;20349;-91
2022/05/11 04:05:15;;;;;;;4.10;1.45;;;16.50;73.00;;;;;;2074673;28;20046;-91
2022/05/11 04:06:34;;;;;;;2.30;1.40;;;16.50;73.00;;;;;;2065782;28;20046;-91
2022/05/11 04:07:53;;;;;;;2.60;1.58;;;16.50;73.00;;;;;;2062967;28;20069;-91
2022/05/11 04:09:13;;;;;;;2.47;1.60;;;16.50;73.00;;;;;;2061578;28;20130;-91
2022/05/11 04:10:32;;;;;;;2.72;1.50;;;16.50;73.00;;;;;;2070818;28;20081;-91
2022/05/11 04:11:51;;;;;;;3.55;1.60;;;16.50;73.00;;;;;;2074977;28;20034;-91
2022/05/11 04:13:10;;;;;;;3.63;1.80;;;16.60;73.00;;;;;;2074189;28;20065;-91
2022/05/11 04:14:30;;;;;;;2.30;1.60;;;16.50;73.00;;;;;;2073895;28;20041;-91
2022/05/11 04:15:50;;;;;;;1.98;1.27;;;16.50;73.00;;;;;;2074783;28;20108;-91
2022/05/11 04:17:09;;;;;;;2.53;1.70;;;16.60;73.00;;;;;;2074537;28;20042;-91
2022/05/11 04:18:28;;;;;;;2.85;1.70;;;16.50;73.00;;;;;;2075251;28;20034;-90
2022/05/11 04:19:48;;;;;;;2.22;1.45;;;16.50;73.00;;;;;;2056594;28;20126;-91
2022/05/11 04:21:07;;;;;;;3.30;1.73;;;16.50;73.00;;;;;;2067536;28;20042;-91
2022/05/11 04:22:27;;;;;;;3.35;1.52;;;16.50;73.00;;;;;;2066657;28;20042;-91
2022/05/11 04:23:46;;;;;;;4.13;1.70;;;16.50;73.00;;;;;;2063058;28;20062;-91
2022/05/11 04:25:05;;;;;;;2.47;1.40;;;16.60;73.10;;;;;;2071302;28;20054;-91
2022/05/11 04:26:25;;;;;;;2.47;1.63;;;16.50;73.10;;;;;;2074840;28;20037;-91
2022/05/11 04:27:46;;;;;;;3.67;1.83;;;16.50;73.10;;;;;;2074732;28;20054;-90
2022/05/11 04:29:05;;;;;;;3.60;1.70;;;16.50;73.70;;;;;;2072410;28;20037;-91
2022/05/11 04:30:26;;;;;;;2.72;1.40;;;16.60;73.20;;;;;;2061903;28;20050;-91
2022/05/11 04:31:45;;;;;;;2.75;1.63;;;16.50;73.20;;;;;;2071488;28;20492;-91
2022/05/11 04:33:06;;;;;;;2.53;1.40;;;16.50;73.10;;;;;;2074551;28;20515;-91
2022/05/11 04:34:25;;;;;;;3.65;1.80;;;16.60;73.20;;;;;;2074507;28;20041;-91
2022/05/11 04:35:44;;;;;;;2.25;1.30;;;16.60;73.20;;;;;;2057984;28;20047;-91
2022/05/11 04:37:04;;;;;;;2.83;1.50;;;16.60;73.10;;;;;;2058219;28;20129;-91
2022/05/11 04:38:23;;;;;;;3.67;1.70;;;16.60;73.20;;;;;;2063418;28;20030;-91
2022/05/11 04:39:42;;;;;;;2.78;1.40;;;16.60;73.10;;;;;;2061711;28;20039;-91
2022/05/11 04:41:02;;;;;;;2.10;1.52;;;16.60;73.20;;;;;;2069488;28;20038;-91
2022/05/11 04:42:22;;;;;;;2.67;1.67;;;16.60;73.10;;;;;;2074013;28;20034;-91
2022/05/11 04:43:41;;;;;;;3.05;1.27;;;16.60;73.20;;;;;;2066002;28;20043;-91
2022/05/11 04:45:00;;;;;;;3.05;1.48;;;16.60;73.20;;;;;;2062963;28;20512;-91
2022/05/11 04:46:19;;;;;;;2.58;1.35;;;16.60;73.10;;;;;;2071485;28;20038;-91
2022/05/11 04:47:39;;;;;;;2.20;1.40;;;16.60;73.10;;;;;;2061412;28;20050;-91
2022/05/11 04:49:16;;;;;;;2.97;1.42;;;16.60;73.10;;;;;;2063502;28;20098;-91
2022/05/11 04:50:38;;;;;;;3.95;1.50;;;16.60;73.10;;;;;;2065935;28;20050;-91
2022/05/11 04:52:01;;;;;;;2.50;1.40;;;16.60;73.00;;;;;;2072788;28;20037;-91
2022/05/11 04:53:20;;;;;;;2.90;1.40;;;16.60;73.00;;;;;;2074200;28;20057;-92
2022/05/11 04:54:43;;;;;;;2.25;1.40;;;16.60;73.00;;;;;;2070834;28;20038;-91
2022/05/11 04:56:02;;;;;;;2.65;1.55;;;16.60;73.10;;;;;;2066474;28;20046;-92
2022/05/11 04:57:21;;;;;;;3.00;1.42;;;16.60;73.00;;;;;;2070901;28;20038;-91
2022/05/11 04:58:40;;;;;;;2.10;1.27;;;16.60;73.00;;;;;;2074379;28;20551;-91
2022/05/11 05:00:00;;;;;;;2.78;1.30;;;16.60;73.00;;;;;;2063610;28;20030;-90
2022/05/11 05:01:19;;;;;;;2.20;1.50;;;16.60;73.10;;;;;;2069791;28;20042;-92
2022/05/11 05:02:39;;;;;;;2.75;1.50;;;16.60;73.10;;;;;;2066303;28;20038;-91
2022/05/11 05:03:59;;;;;;;2.60;1.33;;;16.60;73.10;;;;;;2067518;28;20801;-91
2022/05/11 05:05:19;;;;;;;2.95;1.48;;;16.60;73.10;;;;;;2068355;28;20081;-91
2022/05/11 05:06:38;;;;;;;1.83;1.23;;;16.60;73.70;;;;;;2074500;28;20050;-91
2022/05/11 05:07:57;;;;;;;2.00;1.27;;;16.60;73.10;;;;;;2077448;28;20124;-91
2022/05/11 05:09:16;;;;;;;2.63;1.48;;;16.60;73.20;;;;;;2065166;28;20042;-92
2022/05/11 05:10:36;;;;;;;2.47;1.27;;;16.60;73.20;;;;;;2067209;28;20053;-91
2022/05/11 05:11:56;;;;;;;2.90;1.35;;;16.60;73.20;;;;;;2072700;28;20095;-92
2022/05/11 05:13:15;;;;;;;2.92;1.55;;;16.60;73.30;;;;;;2059756;28;20043;-90
2022/05/11 05:14:34;;;;;;;2.80;1.40;;;16.60;73.20;;;;;;2065370;28;20053;-92
2022/05/11 05:15:58;;;;;;;2.35;1.40;;;16.60;73.20;;;;;;2066923;28;20480;-92
2022/05/11 05:17:18;;;;;;;3.42;1.50;;;16.70;73.30;;;;;;2072248;28;20030;-91
2022/05/11 05:18:37;;;;;;;2.58;1.30;;;16.70;73.30;;;;;;2068238;28;20038;-91
2022/05/11 05:19:56;;;;;;;2.35;1.50;;;16.70;73.30;;;;;;2072367;28;20041;-92
2022/05/11 05:21:16;;;;;;;2.08;1.25;;;16.70;73.30;;;;;;2073310;28;20037;-91
2022/05/11 05:22:36;;;;;;;3.30;1.27;;;16.70;73.30;;;;;;2071523;28;20041;-90
2022/05/11 05:23:55;;;;;;;2.83;1.27;;;16.70;73.30;;;;;;2070224;28;20050;-90
2022/05/11 05:25:14;;;;;;;3.17;1.30;;;16.70;73.30;;;;;;2062800;28;20042;-91
2022/05/11 05:26:33;;;;;;;2.30;1.35;;;16.70;73.40;;;;;;2063970;28;20034;-90
2022/05/11 05:27:53;;;;;;;3.42;1.38;;;16.70;73.40;;;;;;2070307;28;20042;-91
2022/05/11 05:31:05;;;;;;;4.35;1.20;;;16.70;73.30;;;;;;2074964;28;20073;-91
2022/05/11 05:32:25;;;;;;;2.90;1.38;;;16.70;73.30;;;;;;2068108;28;20076;-92
2022/05/11 05:33:45;;;;;;;2.40;1.23;;;16.70;73.30;;;;;;2061939;28;20420;-91
2022/05/11 05:35:10;;;;;;;2.10;1.20;;;16.70;73.30;;;;;;2062555;28;20043;-90
2022/05/11 05:36:32;;;;;;;1.83;1.00;;;16.70;73.30;;;;;;2075062;28;20077;-89
2022/05/11 05:37:52;;;;;;;3.03;1.23;;;16.70;73.30;;;;;;2071865;28;20050;-91
2022/05/11 05:39:11;;;;;;;2.67;1.20;;;16.70;73.30;;;;;;2075326;28;20077;-90
2022/05/11 05:40:30;;;;;;;4.30;1.77;;;16.70;73.40;;;;;;2073499;28;20037;-91
2022/05/11 05:41:49;;;;;;;2.88;1.48;;;16.70;73.30;;;;;;2059094;28;20576;-91
2022/05/11 05:43:08;;;;;;;2.58;1.30;;;16.70;73.30;;;;;;2069357;28;20037;-91
2022/05/11 05:44:31;;;;;;;2.63;1.20;;;16.80;73.30;;;;;;2071433;28;20041;-91
2022/05/11 05:45:52;;;;;;;1.95;1.20;;;16.80;73.30;;;;;;2073748;28;20045;-90
2022/05/11 05:47:13;;;;;;;2.72;1.33;;;16.80;73.20;;;;;;2073902;28;20049;-90
2022/05/11 05:48:32;;;;;;;2.65;1.17;;;16.80;73.10;;;;;;2073819;28;20468;-90
2022/05/11 05:49:51;;;;;;;1.92;1.17;;;16.80;73.00;;;;;;2066051;28;20054;-91
2022/05/11 05:51:13;;;;;;;1.58;1.00;;;16.90;72.90;;;;;;2062305;28;20034;-91
2022/05/11 05:52:33;;;;;;;2.25;1.23;;;16.90;72.70;;;;;;2075532;28;20041;-91
2022/05/11 05:53:53;;;;;;;2.55;1.45;;;16.90;72.40;;;;;;2064917;28;20035;-90
2022/05/11 05:55:14;;;;;;;1.80;1.10;;;17.00;72.20;;;;;;2070388;28;20492;-91
2022/05/11 05:56:33;;;;;;;2.67;1.30;;;17.00;72.00;;;;;;2074049;28;20034;-91
2022/05/11 05:57:52;;;;;;;2.30;1.17;;;17.10;71.80;;;;;;2074109;28;20069;-91
2022/05/11 05:59:14;;;;;;;3.10;1.30;;;17.20;71.70;;;;;;2064914;28;20485;-91
2022/05/11 06:00:33;;;;;;;2.08;1.10;;;17.20;71.30;;;;;;2061835;28;20043;-91
2022/05/11 06:01:53;;;;;;;2.88;1.02;;;17.30;71.20;;;;;;2052920;28;20042;-90
2022/05/11 06:03:23;;;;;;;2.20;1.17;;;17.40;71.00;;;;;;2059870;28;20031;-91
2022/05/11 06:04:48;;;;;;;2.47;1.10;;;17.40;70.70;;;;;;2079626;28;20034;-90
2022/05/11 06:06:08;;;;;;;1.98;1.00;;;17.50;70.50;;;;;;2075466;28;20041;-90
2022/05/11 06:07:28;;;;;;;3.33;1.08;;;17.60;70.40;;;;;;2070899;28;20464;-91
2022/05/11 06:08:47;;;;;;;2.58;0.82;;;17.70;70.20;;;;;;2074078;28;20038;-90
2022/05/11 06:10:09;;;;;;;2.35;1.15;;;17.70;70.00;;;;;;2067443;28;20047;-90
2022/05/11 06:11:28;;;;;;;1.48;0.82;;;17.70;69.80;;;;;;2062689;28;20054;-91
2022/05/11 06:12:48;;;;;;;1.75;0.80;;;17.80;69.80;;;;;;2068311;28;20042;-89
2022/05/11 06:14:07;;;;;;;2.60;0.90;;;17.80;69.80;;;;;;2072684;28;20042;-89
2022/05/11 06:15:26;;;;;;;3.70;1.10;;;17.80;69.70;;;;;;2062664;28;20046;-91
2022/05/11 06:16:45;;;;;;;2.30;0.98;;;17.80;69.60;;;;;;2050126;28;20067;-90
2022/05/11 06:18:06;;;;;;;1.70;0.77;;;17.80;69.60;;;;;;2062789;28;20042;-92
2022/05/11 06:19:29;;;;;;;3.33;1.02;;;17.80;69.50;;;;;;2073937;28;20481;-91
2022/05/11 06:20:52;;;;;;;2.00;0.98;;;17.80;69.40;;;;;;2074424;28;20523;-90
2022/05/11 06:22:11;;;;;;;3.38;0.80;;;17.80;69.20;;;;;;2074317;28;20041;-91
2022/05/11 06:23:31;;;;;;;3.70;1.00;;;17.90;69.20;;;;;;2078076;28;20073;-91
2022/05/11 06:24:50;;;;;;;2.35;1.05;;;17.90;68.90;;;;;;2077810;28;20033;-91
2022/05/11 06:26:10;;;;;;;1.50;0.80;;;17.90;68.70;;;;;;2070365;28;20055;-91
2022/05/11 06:27:29;;;;;;;2.20;0.82;;;18.00;68.50;;;;;;2067473;28;20057;-91
2022/05/11 06:28:48;;;;;;;1.92;0.88;;;18.00;68.20;;;;;;2069384;28;20034;-91
2022/05/11 06:30:08;;;;;;;2.97;1.15;;;18.00;67.90;;;;;;2058053;28;20047;-91
2022/05/11 06:31:28;;;;;;;2.88;1.00;;;18.10;67.70;;;;;;2059633;28;20125;-91
2022/05/11 06:32:47;;;;;;;2.55;0.85;;;18.00;67.50;;;;;;2070390;28;20046;-91
2022/05/11 06:34:07;;;;;;;1.98;0.73;;;18.10;67.50;;;;;;2073616;28;20045;-89
2022/05/11 06:35:27;;;;;;;1.55;0.70;;;18.10;67.30;;;;;;2057336;28;20125;-91
2022/05/11 06:36:46;;;;;;;1.73;0.70;;;18.20;67.20;;;;;;2059077;28;20043;-91
2022/05/11 06:38:07;;;;;;;1.30;0.70;;;18.30;67.10;;;;;;2054218;28;20035;-91
2022/05/11 06:39:26;;;;;;;2.35;0.70;;;18.30;66.80;;;;;;2061626;28;20114;-90
2022/05/11 06:40:45;;;;;;;2.88;0.80;;;18.30;66.40;;;;;;2047022;29;20134;-91
2022/05/11 06:42:09;;;;;;;2.15;0.80;;;18.40;65.90;;;;;;2060979;28;20472;-92
2022/05/11 06:43:28;;;;;;;3.95;1.00;;;18.40;65.50;;;;;;2067330;28;20093;-91
2022/05/11 06:44:49;;;;;;;1.85;0.80;;;18.40;65.40;;;;;;2071408;28;20033;-91
2022/05/11 06:46:08;;;;;;;;;;;18.40;65.20;;;;;;2063092;28;20050;-91
2022/05/11 06:47:27;;;;;;;2.47;0.90;;;18.40;64.90;;;;;;2070011;28;19921;-91
2022/05/11 06:48:47;;;;;;;3.22;0.80;;;18.50;64.90;;;;;;2057953;28;20038;-90
2022/05/11 06:50:08;;;;;;;2.72;0.80;;;18.50;64.60;;;;;;2055036;28;20473;-92
2022/05/11 06:51:27;;;;;;;2.70;0.80;;;18.50;64.60;;;;;;2073256;28;20113;-91
2022/05/11 06:52:47;;;;;;;2.65;0.70;;;18.60;64.50;;;;;;2063867;28;20050;-91
2022/05/11 06:59:24;;;;;;;2.65;1.15;;;18.60;63.70;;;;;;2072705;28;20050;-92
2022/05/11 07:00:43;;;;;;;4.35;0.70;;;18.60;63.70;;;;;;2066216;28;20051;-91
2022/05/11 07:02:04;;;;;;;4.47;0.90;;;18.60;63.50;;;;;;2064968;28;20048;-90
2022/05/11 07:03:23;;;;;;;2.38;0.90;;;18.60;63.30;;;;;;2071996;28;20042;-91
2022/05/11 07:04:42;;;;;;;5.57;0.88;;;18.50;62.70;;;;;;2074594;28;20050;-92
2022/05/11 07:06:02;;;;;;;2.65;0.90;;;18.50;62.90;;;;;;2055753;28;20051;-91
2022/05/11 07:07:22;;;;;;;3.90;0.82;;;18.50;62.90;;;;;;2067043;28;20102;-91
2022/05/11 07:08:44;;;;;;;3.33;0.77;;;18.60;62.70;;;;;;2061370;28;20039;-91
2022/05/11 07:10:05;;;;;;;1.55;0.60;;;18.60;62.70;;;;;;2073106;28;20042;-92
2022/05/11 07:13:04;;;;;;;1.58;0.68;;;18.70;62.40;;;;;;2075089;28;20049;-91
2022/05/11 07:14:24;;;;;;;2.72;0.60;;;18.80;62.10;;;;;;2074414;28;20041;-91
2022/05/11 07:15:43;;;;;;;1.60;0.70;;;18.90;61.80;;;;;;2066846;28;20046;-91
2022/05/11 07:17:03;;;;;;;2.83;0.60;;;19.00;61.50;;;;;;2071842;28;20500;-91
2022/05/11 07:18:23;;;;;;;;;;;19.10;61.30;;;;;;2066994;28;20034;-91
2022/05/11 07:19:42;;;;;;;1.42;0.50;;;19.30;60.90;;;;;;2067640;28;19913;-93
2022/05/11 07:21:03;;;;;;;2.53;0.63;;;19.40;60.90;;;;;;2065942;28;20042;-91
2022/05/11 07:22:23;;;;;;;;;;;19.50;60.60;;;;;;2061333;28;20046;-91